Airfield :







YOU CAN JOIN US ON...

 
LOGIN :

Register | Disclaimer

   EN    FR    IT 

 









Legend :    VFR   Marginal VFR   IFR   Intensive IFR   Very Intensive IFR
Visi :
Ceiling :
>= 8 km
>= 3000ft
5 to 8 km
1000 to 3000 ft
1500m to 5 km
500 to 1000 ft
800 to 1500m
200 to 500 ft
< 800m
< 200 ft
Symbols :   Thunderstorms  Fog  Heavy snow  Heavy precipitations  Wind > 20 kt







- Airport Elevation : 827 ft


KDDH - William H. Morse State

CURRENT METAR :
  • 212354Z AUTO 00000KT 10SM -RA OVC070 03/01 A2988 RMK AO2 UPB42E48 SLP125 P0000 60006 T00330011 10067 20028 58029

EXPIRED METARs :
  • 212254Z AUTO 00000KT 9SM -RA OVC050 03/02 A2992 RMK AO2 RAE08B40 SLP137 P0000 T00330017
  • 212154Z AUTO 00000KT 10SM -RA OVC041 04/01 A2994 RMK AO2 RAB18 SLP144 P0002 T00390011
  • 212135Z AUTO VRB05KT 10SM -RA SCT029 OVC041 04/01 A2995 RMK AO2 RAB18 P0000 T00440006
  • 212126Z AUTO VRB05KT 9SM -RA BKN028 OVC043 04/00 A2995 RMK AO2 RAB18 P0000 T00440000

TAF N/A
KZBW FIR / North America



MET'MAP, your aeronautical weather chart ! - Copyright ORBIFLY December 2007 - Disclaimer

ORBIFLY MET'MAP TEAM :

Programming & Development : Alexandra Zaïnal
Concept & Development : Baudouin d'Aumeries
Co-Development & Prog : Marc-Olivier Méhu
Technical & hardware support : Manuel Goepfert

Contact : metmap@orbifly.com




SOURCES & CREDITS :

   NOAA